sensor_id;sensor_type;location;lat;lon;timestamp;temperature;humidity
70839;DHT22;58464;52.298;4.852;2022-08-24T00:00:52;21.61;75.84
70839;DHT22;58464;52.298;4.852;2022-08-24T00:03:18;21.67;75.96
70839;DHT22;58464;52.298;4.852;2022-08-24T00:05:44;21.68;75.73
70839;DHT22;58464;52.298;4.852;2022-08-24T00:08:10;21.68;75.67
70839;DHT22;58464;52.298;4.852;2022-08-24T00:10:36;21.73;75.52
70839;DHT22;58464;52.298;4.852;2022-08-24T00:13:03;21.73;75.52
70839;DHT22;58464;52.298;4.852;2022-08-24T00:15:29;21.68;75.63
70839;DHT22;58464;52.298;4.852;2022-08-24T00:17:54;21.70;75.33
70839;DHT22;58464;52.298;4.852;2022-08-24T00:20:21;21.65;75.33
70839;DHT22;58464;52.298;4.852;2022-08-24T00:22:46;21.67;75.54
70839;DHT22;58464;52.298;4.852;2022-08-24T00:25:12;21.60;75.66
70839;DHT22;58464;52.298;4.852;2022-08-24T00:27:40;21.55;75.86
70839;DHT22;58464;52.298;4.852;2022-08-24T00:30:08;21.54;75.76
70839;DHT22;58464;52.298;4.852;2022-08-24T00:32:34;21.51;75.82
70839;DHT22;58464;52.298;4.852;2022-08-24T00:35:03;21.54;75.87
70839;DHT22;58464;52.298;4.852;2022-08-24T00:37:29;21.53;75.69
70839;DHT22;58464;52.298;4.852;2022-08-24T00:39:55;21.53;75.72
70839;DHT22;58464;52.298;4.852;2022-08-24T00:42:21;21.51;75.73
70839;DHT22;58464;52.298;4.852;2022-08-24T00:44:46;21.41;75.99
70839;DHT22;58464;52.298;4.852;2022-08-24T00:47:21;21.39;76.24
70839;DHT22;58464;52.298;4.852;2022-08-24T00:52:27;21.40;75.97
70839;DHT22;58464;52.298;4.852;2022-08-24T00:54:57;21.36;76.17
70839;DHT22;58464;52.298;4.852;2022-08-24T00:57:28;21.39;76.21
70839;DHT22;58464;52.298;4.852;2022-08-24T01:00:01;21.30;76.31
70839;DHT22;58464;52.298;4.852;2022-08-24T01:02:33;21.41;76.07
70839;DHT22;58464;52.298;4.852;2022-08-24T01:05:05;21.39;76.08
70839;DHT22;58464;52.298;4.852;2022-08-24T01:07:32;21.36;76.03
70839;DHT22;58464;52.298;4.852;2022-08-24T01:10:03;21.46;75.85
70839;DHT22;58464;52.298;4.852;2022-08-24T01:12:31;21.41;75.99
70839;DHT22;58464;52.298;4.852;2022-08-24T01:14:58;21.37;75.91
70839;DHT22;58464;52.298;4.852;2022-08-24T01:17:25;21.32;76.24
70839;DHT22;58464;52.298;4.852;2022-08-24T01:20:10;21.32;76.32
70839;DHT22;58464;52.298;4.852;2022-08-24T01:23:04;21.30;76.36
70839;DHT22;58464;52.298;4.852;2022-08-24T01:25:32;21.30;76.62
70839;DHT22;58464;52.298;4.852;2022-08-24T01:28:03;21.24;76.70
70839;DHT22;58464;52.298;4.852;2022-08-24T01:30:30;21.26;76.70
70839;DHT22;58464;52.298;4.852;2022-08-24T01:32:58;21.19;77.03
70839;DHT22;58464;52.298;4.852;2022-08-24T01:35:24;21.16;77.46
70839;DHT22;58464;52.298;4.852;2022-08-24T01:37:50;21.09;77.76
70839;DHT22;58464;52.298;4.852;2022-08-24T01:40:16;21.04;78.17
70839;DHT22;58464;52.298;4.852;2022-08-24T01:42:50;21.07;78.48
70839;DHT22;58464;52.298;4.852;2022-08-24T01:45:17;21.07;78.91
70839;DHT22;58464;52.298;4.852;2022-08-24T01:47:42;21.13;79.31
70839;DHT22;58464;52.298;4.852;2022-08-24T01:50:07;21.13;79.63
70839;DHT22;58464;52.298;4.852;2022-08-24T01:52:33;21.18;79.66
70839;DHT22;58464;52.298;4.852;2022-08-24T01:54:58;21.14;79.85
70839;DHT22;58464;52.298;4.852;2022-08-24T01:57:25;21.12;80.36
70839;DHT22;58464;52.298;4.852;2022-08-24T01:59:51;21.14;80.50
70839;DHT22;58464;52.298;4.852;2022-08-24T02:02:21;21.09;81.06
70839;DHT22;58464;52.298;4.852;2022-08-24T02:04:49;21.10;81.38
70839;DHT22;58464;52.298;4.852;2022-08-24T02:07:14;21.06;81.49
70839;DHT22;58464;52.298;4.852;2022-08-24T02:09:40;21.06;81.94
70839;DHT22;58464;52.298;4.852;2022-08-24T02:12:06;21.03;82.16
70839;DHT22;58464;52.298;4.852;2022-08-24T02:14:32;21.02;82.31
70839;DHT22;58464;52.298;4.852;2022-08-24T02:16:57;21.03;82.36
70839;DHT22;58464;52.298;4.852;2022-08-24T02:19:23;21.04;82.30
70839;DHT22;58464;52.298;4.852;2022-08-24T02:21:49;20.98;82.19
70839;DHT22;58464;52.298;4.852;2022-08-24T02:24:15;20.92;82.45
70839;DHT22;58464;52.298;4.852;2022-08-24T02:26:40;20.95;82.26
70839;DHT22;58464;52.298;4.852;2022-08-24T02:29:06;20.86;82.28
70839;DHT22;58464;52.298;4.852;2022-08-24T02:31:32;20.83;82.40
70839;DHT22;58464;52.298;4.852;2022-08-24T02:33:57;20.83;82.29
70839;DHT22;58464;52.298;4.852;2022-08-24T02:36:24;20.83;82.10
70839;DHT22;58464;52.298;4.852;2022-08-24T02:38:50;20.79;82.32
70839;DHT22;58464;52.298;4.852;2022-08-24T02:41:16;20.76;82.29
70839;DHT22;58464;52.298;4.852;2022-08-24T02:43:41;20.73;82.12
70839;DHT22;58464;52.298;4.852;2022-08-24T02:46:06;20.75;82.19
70839;DHT22;58464;52.298;4.852;2022-08-24T02:48:32;20.75;82.18
70839;DHT22;58464;52.298;4.852;2022-08-24T02:50:58;20.72;81.91
70839;DHT22;58464;52.298;4.852;2022-08-24T02:53:24;20.73;82.09
70839;DHT22;58464;52.298;4.852;2022-08-24T02:55:49;20.69;82.10
70839;DHT22;58464;52.298;4.852;2022-08-24T02:58:15;20.65;82.13
70839;DHT22;58464;52.298;4.852;2022-08-24T03:00:43;20.56;82.25
70839;DHT22;58464;52.298;4.852;2022-08-24T03:03:10;20.62;82.19
70839;DHT22;58464;52.298;4.852;2022-08-24T03:05:36;20.61;82.23
70839;DHT22;58464;52.298;4.852;2022-08-24T03:08:03;20.64;82.04
70839;DHT22;58464;52.298;4.852;2022-08-24T03:10:28;20.58;82.13
70839;DHT22;58464;52.298;4.852;2022-08-24T03:12:54;20.56;82.05
70839;DHT22;58464;52.298;4.852;2022-08-24T03:15:21;20.61;81.82
70839;DHT22;58464;52.298;4.852;2022-08-24T03:17:47;20.65;81.77
70839;DHT22;58464;52.298;4.852;2022-08-24T03:20:16;20.56;82.00
70839;DHT22;58464;52.298;4.852;2022-08-24T03:22:43;20.62;81.76
70839;DHT22;58464;52.298;4.852;2022-08-24T03:25:09;20.58;81.75
70839;DHT22;58464;52.298;4.852;2022-08-24T03:27:36;20.62;81.75
70839;DHT22;58464;52.298;4.852;2022-08-24T03:30:03;20.64;81.55
70839;DHT22;58464;52.298;4.852;2022-08-24T03:32:28;20.64;81.37
70839;DHT22;58464;52.298;4.852;2022-08-24T03:34:54;20.62;81.25
70839;DHT22;58464;52.298;4.852;2022-08-24T03:37:20;20.62;81.41
70839;DHT22;58464;52.298;4.852;2022-08-24T03:39:45;20.61;81.57
70839;DHT22;58464;52.298;4.852;2022-08-24T03:42:13;20.52;81.68
70839;DHT22;58464;52.298;4.852;2022-08-24T03:44:38;20.59;81.63
70839;DHT22;58464;52.298;4.852;2022-08-24T03:47:05;20.54;81.81
70839;DHT22;58464;52.298;4.852;2022-08-24T03:49:31;20.51;81.82
70839;DHT22;58464;52.298;4.852;2022-08-24T03:51:57;20.48;82.04
70839;DHT22;58464;52.298;4.852;2022-08-24T03:54:24;20.54;81.76
70839;DHT22;58464;52.298;4.852;2022-08-24T03:56:49;20.58;81.86
70839;DHT22;58464;52.298;4.852;2022-08-24T03:59:14;20.56;81.80
70839;DHT22;58464;52.298;4.852;2022-08-24T04:01:40;20.55;82.07
70839;DHT22;58464;52.298;4.852;2022-08-24T04:04:05;20.52;82.28
70839;DHT22;58464;52.298;4.852;2022-08-24T04:06:30;20.48;82.30
70839;DHT22;58464;52.298;4.852;2022-08-24T04:08:56;20.48;82.49
70839;DHT22;58464;52.298;4.852;2022-08-24T04:11:24;20.55;82.84
70839;DHT22;58464;52.298;4.852;2022-08-24T04:13:54;20.54;82.87
70839;DHT22;58464;52.298;4.852;2022-08-24T04:16:20;20.54;83.05
70839;DHT22;58464;52.298;4.852;2022-08-24T04:18:46;20.54;83.34
70839;DHT22;58464;52.298;4.852;2022-08-24T04:21:21;20.44;83.62
70839;DHT22;58464;52.298;4.852;2022-08-24T04:23:47;20.48;83.52
70839;DHT22;58464;52.298;4.852;2022-08-24T04:26:14;20.48;83.54
70839;DHT22;58464;52.298;4.852;2022-08-24T04:28:39;20.47;83.58
70839;DHT22;58464;52.298;4.852;2022-08-24T04:31:06;20.37;83.98
70839;DHT22;58464;52.298;4.852;2022-08-24T04:33:31;20.33;84.02
70839;DHT22;58464;52.298;4.852;2022-08-24T04:35:57;20.33;84.41
70839;DHT22;58464;52.298;4.852;2022-08-24T04:38:23;20.44;84.36
70839;DHT22;58464;52.298;4.852;2022-08-24T04:40:49;20.54;84.19
70839;DHT22;58464;52.298;4.852;2022-08-24T04:43:15;20.52;84.03
70839;DHT22;58464;52.298;4.852;2022-08-24T04:45:42;20.55;83.79
70839;DHT22;58464;52.298;4.852;2022-08-24T04:48:09;20.61;83.77
70839;DHT22;58464;52.298;4.852;2022-08-24T04:50:37;20.64;83.65
70839;DHT22;58464;52.298;4.852;2022-08-24T04:53:04;20.67;83.55
70839;DHT22;58464;52.298;4.852;2022-08-24T04:55:30;20.72;83.72
70839;DHT22;58464;52.298;4.852;2022-08-24T04:57:56;20.76;83.40
70839;DHT22;58464;52.298;4.852;2022-08-24T05:00:21;20.78;83.49
70839;DHT22;58464;52.298;4.852;2022-08-24T05:02:47;20.81;83.27
70839;DHT22;58464;52.298;4.852;2022-08-24T05:05:13;20.89;83.17
70839;DHT22;58464;52.298;4.852;2022-08-24T05:07:39;20.92;83.23
70839;DHT22;58464;52.298;4.852;2022-08-24T05:10:05;20.98;82.94
70839;DHT22;58464;52.298;4.852;2022-08-24T05:12:31;21.10;82.47
70839;DHT22;58464;52.298;4.852;2022-08-24T05:14:57;21.12;82.51
70839;DHT22;58464;52.298;4.852;2022-08-24T05:17:24;21.14;82.51
70839;DHT22;58464;52.298;4.852;2022-08-24T05:19:49;21.20;82.27
70839;DHT22;58464;52.298;4.852;2022-08-24T05:22:15;21.36;81.98
70839;DHT22;58464;52.298;4.852;2022-08-24T05:24:40;21.36;81.67
70839;DHT22;58464;52.298;4.852;2022-08-24T05:27:07;21.49;81.31
70839;DHT22;58464;52.298;4.852;2022-08-24T05:29:33;21.53;81.31
70839;DHT22;58464;52.298;4.852;2022-08-24T05:31:59;21.61;81.00
70839;DHT22;58464;52.298;4.852;2022-08-24T05:34:25;21.67;80.70
70839;DHT22;58464;52.298;4.852;2022-08-24T05:36:50;21.67;80.60
70839;DHT22;58464;52.298;4.852;2022-08-24T05:39:16;21.73;80.58
70839;DHT22;58464;52.298;4.852;2022-08-24T05:41:43;21.82;80.31
70839;DHT22;58464;52.298;4.852;2022-08-24T05:44:09;21.87;80.05
70839;DHT22;58464;52.298;4.852;2022-08-24T05:46:34;21.95;79.77
70839;DHT22;58464;52.298;4.852;2022-08-24T05:49:00;21.98;79.61
70839;DHT22;58464;52.298;4.852;2022-08-24T05:51:26;22.02;79.42
70839;DHT22;58464;52.298;4.852;2022-08-24T05:53:51;22.02;79.44
70839;DHT22;58464;52.298;4.852;2022-08-24T05:56:17;22.02;79.25
70839;DHT22;58464;52.298;4.852;2022-08-24T05:58:44;22.08;78.95
70839;DHT22;58464;52.298;4.852;2022-08-24T06:01:16;22.15;79.03
70839;DHT22;58464;52.298;4.852;2022-08-24T06:03:42;22.26;78.36
70839;DHT22;58464;52.298;4.852;2022-08-24T06:06:08;22.38;77.78
70839;DHT22;58464;52.298;4.852;2022-08-24T06:08:39;22.49;77.40
70839;DHT22;58464;52.298;4.852;2022-08-24T06:11:05;22.63;77.20
70839;DHT22;58464;52.298;4.852;2022-08-24T06:13:31;22.71;76.63
70839;DHT22;58464;52.298;4.852;2022-08-24T06:16:07;22.77;76.10
70839;DHT22;58464;52.298;4.852;2022-08-24T06:18:32;22.99;75.90
70839;DHT22;58464;52.298;4.852;2022-08-24T06:21:04;23.04;75.63
70839;DHT22;58464;52.298;4.852;2022-08-24T06:23:33;23.08;74.94
70839;DHT22;58464;52.298;4.852;2022-08-24T06:25:59;23.10;75.16
70839;DHT22;58464;52.298;4.852;2022-08-24T06:28:43;23.21;74.54
70839;DHT22;58464;52.298;4.852;2022-08-24T06:31:08;23.37;74.63
70839;DHT22;58464;52.298;4.852;2022-08-24T06:33:34;23.37;74.24
70839;DHT22;58464;52.298;4.852;2022-08-24T06:36:00;23.48;74.35
70839;DHT22;58464;52.298;4.852;2022-08-24T06:38:25;23.62;73.78
70839;DHT22;58464;52.298;4.852;2022-08-24T06:40:51;23.66;73.11
70839;DHT22;58464;52.298;4.852;2022-08-24T06:43:16;23.76;72.63
70839;DHT22;58464;52.298;4.852;2022-08-24T06:45:42;23.95;72.07
70839;DHT22;58464;52.298;4.852;2022-08-24T06:48:09;24.06;71.70
70839;DHT22;58464;52.298;4.852;2022-08-24T06:50:34;24.14;71.32
70839;DHT22;58464;52.298;4.852;2022-08-24T06:53:00;24.23;71.06
70839;DHT22;58464;52.298;4.852;2022-08-24T06:55:26;24.31;70.89
70839;DHT22;58464;52.298;4.852;2022-08-24T06:57:52;24.41;70.54
70839;DHT22;58464;52.298;4.852;2022-08-24T07:00:19;24.41;70.24
70839;DHT22;58464;52.298;4.852;2022-08-24T07:02:45;24.47;70.06
70839;DHT22;58464;52.298;4.852;2022-08-24T07:05:11;24.37;70.59
70839;DHT22;58464;52.298;4.852;2022-08-24T07:07:36;24.43;70.52
70839;DHT22;58464;52.298;4.852;2022-08-24T07:10:03;24.24;70.64
70839;DHT22;58464;52.298;4.852;2022-08-24T07:12:29;24.27;70.30
70839;DHT22;58464;52.298;4.852;2022-08-24T07:14:54;24.34;70.34
70839;DHT22;58464;52.298;4.852;2022-08-24T07:17:20;24.41;70.22
70839;DHT22;58464;52.298;4.852;2022-08-24T07:19:45;24.38;70.33
70839;DHT22;58464;52.298;4.852;2022-08-24T07:22:11;24.44;69.90
70839;DHT22;58464;52.298;4.852;2022-08-24T07:24:38;24.53;69.82
70839;DHT22;58464;52.298;4.852;2022-08-24T07:27:04;24.57;69.62
70839;DHT22;58464;52.298;4.852;2022-08-24T07:29:29;24.69;69.23
70839;DHT22;58464;52.298;4.852;2022-08-24T07:31:56;24.82;69.17
70839;DHT22;58464;52.298;4.852;2022-08-24T07:34:21;24.89;68.66
70839;DHT22;58464;52.298;4.852;2022-08-24T07:36:47;24.92;68.59
70839;DHT22;58464;52.298;4.852;2022-08-24T07:39:15;25.04;68.59
70839;DHT22;58464;52.298;4.852;2022-08-24T07:41:42;24.92;68.48
70839;DHT22;58464;52.298;4.852;2022-08-24T07:44:08;25.15;68.38
70839;DHT22;58464;52.298;4.852;2022-08-24T07:46:35;25.23;68.12
70839;DHT22;58464;52.298;4.852;2022-08-24T07:49:00;25.32;67.72
70839;DHT22;58464;52.298;4.852;2022-08-24T07:51:26;25.37;67.79
70839;DHT22;58464;52.298;4.852;2022-08-24T07:53:51;25.47;67.34
70839;DHT22;58464;52.298;4.852;2022-08-24T07:56:17;25.36;67.02
70839;DHT22;58464;52.298;4.852;2022-08-24T07:58:42;25.33;67.22
70839;DHT22;58464;52.298;4.852;2022-08-24T08:01:08;25.56;66.23
70839;DHT22;58464;52.298;4.852;2022-08-24T08:03:33;25.53;66.35
70839;DHT22;58464;52.298;4.852;2022-08-24T08:06:03;25.57;66.12
70839;DHT22;58464;52.298;4.852;2022-08-24T08:08:29;25.65;65.96
70839;DHT22;58464;52.298;4.852;2022-08-24T08:10:57;25.80;65.85
70839;DHT22;58464;52.298;4.852;2022-08-24T08:13:22;25.97;65.35
70839;DHT22;58464;52.298;4.852;2022-08-24T08:15:48;25.94;65.03
70839;DHT22;58464;52.298;4.852;2022-08-24T08:18:14;25.87;65.30
70839;DHT22;58464;52.298;4.852;2022-08-24T08:20:41;25.84;65.48
70839;DHT22;58464;52.298;4.852;2022-08-24T08:23:07;25.91;65.17
70839;DHT22;58464;52.298;4.852;2022-08-24T08:25:54;25.98;65.16
70839;DHT22;58464;52.298;4.852;2022-08-24T08:28:23;26.18;64.41
70839;DHT22;58464;52.298;4.852;2022-08-24T08:30:48;26.11;64.13
70839;DHT22;58464;52.298;4.852;2022-08-24T08:33:14;26.25;63.96
70839;DHT22;58464;52.298;4.852;2022-08-24T08:35:40;26.26;63.64
70839;DHT22;58464;52.298;4.852;2022-08-24T08:38:09;26.18;64.18
70839;DHT22;58464;52.298;4.852;2022-08-24T08:43:40;26.34;63.26
70839;DHT22;58464;52.298;4.852;2022-08-24T08:51:48;26.75;62.42
70839;DHT22;58464;52.298;4.852;2022-08-24T08:57:19;26.69;61.94
70839;DHT22;58464;52.298;4.852;2022-08-24T09:00:14;26.87;61.46
70839;DHT22;58464;52.298;4.852;2022-08-24T09:03:00;27.43;60.96
70839;DHT22;58464;52.298;4.852;2022-08-24T09:11:42;27.91;59.08
70839;DHT22;58464;52.298;4.852;2022-08-24T09:20:36;28.39;57.82
70839;DHT22;58464;52.298;4.852;2022-08-24T09:22:24;27.95;58.56
70839;DHT22;58464;52.298;4.852;2022-08-24T09:25:06;28.52;57.62
70839;DHT22;58464;52.298;4.852;2022-08-24T09:27:49;28.40;57.65
70839;DHT22;58464;52.298;4.852;2022-08-24T09:30:23;28.60;56.70
70839;DHT22;58464;52.298;4.852;2022-08-24T09:33:19;28.82;56.38
70839;DHT22;58464;52.298;4.852;2022-08-24T09:46:32;28.54;56.18
70839;DHT22;58464;52.298;4.852;2022-08-24T10:00:08;29.60;53.64
70839;DHT22;58464;52.298;4.852;2022-08-24T10:10:52;29.21;53.71
70839;DHT22;58464;52.298;4.852;2022-08-24T10:27:59;30.28;51.52
70839;DHT22;58464;52.298;4.852;2022-08-24T10:30:50;30.54;50.83
70839;DHT22;58464;52.298;4.852;2022-08-24T10:33:21;30.62;50.26
70839;DHT22;58464;52.298;4.852;2022-08-24T10:38:48;30.47;49.89
70839;DHT22;58464;52.298;4.852;2022-08-24T10:46:49;30.16;50.91
70839;DHT22;58464;52.298;4.852;2022-08-24T10:54:43;30.64;50.31
70839;DHT22;58464;52.298;4.852;2022-08-24T11:00:14;31.36;48.48
70839;DHT22;58464;52.298;4.852;2022-08-24T11:02:43;31.92;47.22
70839;DHT22;58464;52.298;4.852;2022-08-24T11:05:15;32.11;47.29
70839;DHT22;58464;52.298;4.852;2022-08-24T11:07:58;31.48;47.49
70839;DHT22;58464;52.298;4.852;2022-08-24T11:10:27;30.95;48.66
70839;DHT22;58464;52.298;4.852;2022-08-24T11:13:23;30.32;50.24
70839;DHT22;58464;52.298;4.852;2022-08-24T11:15:52;30.99;49.15
70839;DHT22;58464;52.298;4.852;2022-08-24T11:18:17;30.47;50.59
70839;DHT22;58464;52.298;4.852;2022-08-24T11:20:45;30.74;50.32
70839;DHT22;58464;52.298;4.852;2022-08-24T11:23:25;31.25;49.18
70839;DHT22;58464;52.298;4.852;2022-08-24T11:26:09;31.43;48.31
70839;DHT22;58464;52.298;4.852;2022-08-24T11:28:44;32.25;46.92
70839;DHT22;58464;52.298;4.852;2022-08-24T11:31:18;32.04;46.46
70839;DHT22;58464;52.298;4.852;2022-08-24T11:33:48;31.51;47.31
70839;DHT22;58464;52.298;4.852;2022-08-24T11:36:22;31.61;47.62
70839;DHT22;58464;52.298;4.852;2022-08-24T11:39:14;31.60;47.62
70839;DHT22;58464;52.298;4.852;2022-08-24T11:41:58;32.24;45.55
70839;DHT22;58464;52.298;4.852;2022-08-24T11:44:39;31.57;46.96
70839;DHT22;58464;52.298;4.852;2022-08-24T12:00:23;31.27;47.70
70839;DHT22;58464;52.298;4.852;2022-08-24T12:03:04;30.89;47.76
70839;DHT22;58464;52.298;4.852;2022-08-24T12:08:33;30.30;49.64
70839;DHT22;58464;52.298;4.852;2022-08-24T12:16:28;30.52;48.81
70839;DHT22;58464;52.298;4.852;2022-08-24T12:19:20;30.71;48.33
70839;DHT22;58464;52.298;4.852;2022-08-24T12:21:51;30.54;48.39
70839;DHT22;58464;52.298;4.852;2022-08-24T12:24:28;30.83;48.24
70839;DHT22;58464;52.298;4.852;2022-08-24T12:27:05;30.98;47.76
70839;DHT22;58464;52.298;4.852;2022-08-24T12:29:43;30.92;47.72
70839;DHT22;58464;52.298;4.852;2022-08-24T12:32:20;31.10;47.05
70839;DHT22;58464;52.298;4.852;2022-08-24T12:37:34;31.04;47.41
70839;DHT22;58464;52.298;4.852;2022-08-24T12:45:21;30.98;47.67
70839;DHT22;58464;52.298;4.852;2022-08-24T12:50:37;31.57;47.32
70839;DHT22;58464;52.298;4.852;2022-08-24T12:56:10;32.48;45.71
70839;DHT22;58464;52.298;4.852;2022-08-24T12:58:54;33.17;44.10
70839;DHT22;58464;52.298;4.852;2022-08-24T13:01:24;33.23;44.85
70839;DHT22;58464;52.298;4.852;2022-08-24T13:06:44;32.73;46.15
70839;DHT22;58464;52.298;4.852;2022-08-24T13:09:29;32.11;48.32
70839;DHT22;58464;52.298;4.852;2022-08-24T13:11:55;32.07;48.93
70839;DHT22;58464;52.298;4.852;2022-08-24T13:14:25;32.19;48.97
70839;DHT22;58464;52.298;4.852;2022-08-24T13:29:40;32.14;46.73
70839;DHT22;58464;52.298;4.852;2022-08-24T13:32:07;31.99;46.63
70839;DHT22;58464;52.298;4.852;2022-08-24T13:34:44;31.87;46.94
70839;DHT22;58464;52.298;4.852;2022-08-24T13:37:14;31.63;48.39
70839;DHT22;58464;52.298;4.852;2022-08-24T13:40:19;31.40;49.53
70839;DHT22;58464;52.298;4.852;2022-08-24T13:43:09;31.25;49.87
70839;DHT22;58464;52.298;4.852;2022-08-24T13:45:56;31.15;50.64
70839;DHT22;58464;52.298;4.852;2022-08-24T13:48:57;30.62;51.85
70839;DHT22;58464;52.298;4.852;2022-08-24T13:54:31;30.07;53.81
70839;DHT22;58464;52.298;4.852;2022-08-24T14:06:02;29.16;55.49
70839;DHT22;58464;52.298;4.852;2022-08-24T14:09:07;29.32;55.70
70839;DHT22;58464;52.298;4.852;2022-08-24T14:14:21;29.41;55.43
70839;DHT22;58464;52.298;4.852;2022-08-24T14:17:20;29.33;54.89
70839;DHT22;58464;52.298;4.852;2022-08-24T14:29:35;29.19;54.84
70839;DHT22;58464;52.298;4.852;2022-08-24T14:37:44;29.25;54.85
70839;DHT22;58464;52.298;4.852;2022-08-24T14:40:31;29.04;55.34
70839;DHT22;58464;52.298;4.852;2022-08-24T14:42:58;29.08;55.61
70839;DHT22;58464;52.298;4.852;2022-08-24T14:48:46;28.97;56.25
70839;DHT22;58464;52.298;4.852;2022-08-24T14:51:43;28.97;56.77
70839;DHT22;58464;52.298;4.852;2022-08-24T14:56:49;28.77;57.75
70839;DHT22;58464;52.298;4.852;2022-08-24T15:10:20;28.36;59.94
70839;DHT22;58464;52.298;4.852;2022-08-24T15:12:55;28.08;60.70
70839;DHT22;58464;52.298;4.852;2022-08-24T15:15:42;27.80;61.80
70839;DHT22;58464;52.298;4.852;2022-08-24T15:26:40;27.58;62.55
70839;DHT22;58464;52.298;4.852;2022-08-24T15:29:31;27.57;62.55
70839;DHT22;58464;52.298;4.852;2022-08-24T15:34:49;27.68;62.44
70839;DHT22;58464;52.298;4.852;2022-08-24T15:37:36;27.80;62.77
70839;DHT22;58464;52.298;4.852;2022-08-24T15:40:20;27.93;62.55
70839;DHT22;58464;52.298;4.852;2022-08-24T15:42:47;27.92;62.52
70839;DHT22;58464;52.298;4.852;2022-08-24T15:45:15;27.85;63.07
70839;DHT22;58464;52.298;4.852;2022-08-24T15:47:43;27.65;63.09
70839;DHT22;58464;52.298;4.852;2022-08-24T15:50:23;27.64;63.44
70839;DHT22;58464;52.298;4.852;2022-08-24T15:55:51;27.40;63.74
70839;DHT22;58464;52.298;4.852;2022-08-24T15:58:24;27.48;63.41
70839;DHT22;58464;52.298;4.852;2022-08-24T16:00:52;27.51;63.60
70839;DHT22;58464;52.298;4.852;2022-08-24T16:03:43;27.57;63.47
70839;DHT22;58464;52.298;4.852;2022-08-24T16:09:31;28.40;61.38
70839;DHT22;58464;52.298;4.852;2022-08-24T16:12:09;28.46;59.64
70839;DHT22;58464;52.298;4.852;2022-08-24T16:14:43;28.73;59.84
70839;DHT22;58464;52.298;4.852;2022-08-24T16:19:52;29.56;57.52
70839;DHT22;58464;52.298;4.852;2022-08-24T16:22:31;30.35;54.79
70839;DHT22;58464;52.298;4.852;2022-08-24T16:27:58;30.40;54.90
70839;DHT22;58464;52.298;4.852;2022-08-24T16:33:34;32.24;50.56
70839;DHT22;58464;52.298;4.852;2022-08-24T16:36:03;31.98;50.70
70839;DHT22;58464;52.298;4.852;2022-08-24T16:38:30;32.04;51.26
70839;DHT22;58464;52.298;4.852;2022-08-24T16:41:00;32.56;49.63
70839;DHT22;58464;52.298;4.852;2022-08-24T16:43:27;32.05;50.98
70839;DHT22;58464;52.298;4.852;2022-08-24T16:45:53;31.47;52.20
70839;DHT22;58464;52.298;4.852;2022-08-24T16:48:19;30.72;54.42
70839;DHT22;58464;52.298;4.852;2022-08-24T16:50:46;30.10;56.04
70839;DHT22;58464;52.298;4.852;2022-08-24T16:53:11;29.39;58.15
70839;DHT22;58464;52.298;4.852;2022-08-24T16:55:38;28.97;59.85
70839;DHT22;58464;52.298;4.852;2022-08-24T16:58:04;29.77;57.27
70839;DHT22;58464;52.298;4.852;2022-08-24T17:00:30;30.41;55.40
70839;DHT22;58464;52.298;4.852;2022-08-24T17:02:56;30.68;55.02
70839;DHT22;58464;52.298;4.852;2022-08-24T17:05:21;31.63;52.49
70839;DHT22;58464;52.298;4.852;2022-08-24T17:07:48;32.31;50.92
70839;DHT22;58464;52.298;4.852;2022-08-24T17:10:16;32.80;49.38
70839;DHT22;58464;52.298;4.852;2022-08-24T17:12:42;32.60;50.09
70839;DHT22;58464;52.298;4.852;2022-08-24T17:15:09;33.20;48.36
70839;DHT22;58464;52.298;4.852;2022-08-24T17:17:36;33.23;48.74
70839;DHT22;58464;52.298;4.852;2022-08-24T17:20:05;32.16;50.79
70839;DHT22;58464;52.298;4.852;2022-08-24T17:22:31;32.05;51.05
70839;DHT22;58464;52.298;4.852;2022-08-24T17:24:56;32.97;48.92
70839;DHT22;58464;52.298;4.852;2022-08-24T17:27:26;33.17;48.11
70839;DHT22;58464;52.298;4.852;2022-08-24T17:29:53;33.34;47.83
70839;DHT22;58464;52.298;4.852;2022-08-24T17:32:18;33.41;46.89
70839;DHT22;58464;52.298;4.852;2022-08-24T17:34:44;32.80;48.24
70839;DHT22;58464;52.298;4.852;2022-08-24T17:37:09;33.00;47.76
70839;DHT22;58464;52.298;4.852;2022-08-24T17:39:35;32.93;48.36
70839;DHT22;58464;52.298;4.852;2022-08-24T17:42:00;32.82;48.16
70839;DHT22;58464;52.298;4.852;2022-08-24T17:44:29;32.19;49.85
70839;DHT22;58464;52.298;4.852;2022-08-24T17:46:58;32.05;50.37
70839;DHT22;58464;52.298;4.852;2022-08-24T17:49:25;31.08;52.62
70839;DHT22;58464;52.298;4.852;2022-08-24T17:51:51;29.81;56.31
70839;DHT22;58464;52.298;4.852;2022-08-24T17:54:18;28.90;59.30
70839;DHT22;58464;52.298;4.852;2022-08-24T17:56:44;28.27;61.28
70839;DHT22;58464;52.298;4.852;2022-08-24T17:59:14;27.77;62.88
70839;DHT22;58464;52.298;4.852;2022-08-24T18:01:58;27.27;64.26
70839;DHT22;58464;52.298;4.852;2022-08-24T18:04:25;26.92;65.19
70839;DHT22;58464;52.298;4.852;2022-08-24T18:06:52;26.75;65.82
70839;DHT22;58464;52.298;4.852;2022-08-24T18:09:30;26.65;66.32
70839;DHT22;58464;52.298;4.852;2022-08-24T18:11:57;26.49;66.85
70839;DHT22;58464;52.298;4.852;2022-08-24T18:14:24;26.39;67.17
70839;DHT22;58464;52.298;4.852;2022-08-24T18:16:51;26.26;67.75
70839;DHT22;58464;52.298;4.852;2022-08-24T18:19:16;26.29;67.68
70839;DHT22;58464;52.298;4.852;2022-08-24T18:21:43;26.45;67.12
70839;DHT22;58464;52.298;4.852;2022-08-24T18:24:10;26.48;67.07
70839;DHT22;58464;52.298;4.852;2022-08-24T18:26:36;26.52;67.03
70839;DHT22;58464;52.298;4.852;2022-08-24T18:29:10;26.65;66.76
70839;DHT22;58464;52.298;4.852;2022-08-24T18:31:36;26.72;66.52
70839;DHT22;58464;52.298;4.852;2022-08-24T18:34:01;26.51;67.34
70839;DHT22;58464;52.298;4.852;2022-08-24T18:36:27;26.39;67.91
70839;DHT22;58464;52.298;4.852;2022-08-24T18:38:52;26.24;68.92
70839;DHT22;58464;52.298;4.852;2022-08-24T18:41:18;26.09;69.53
70839;DHT22;58464;52.298;4.852;2022-08-24T18:43:44;25.91;70.24
70839;DHT22;58464;52.298;4.852;2022-08-24T18:46:09;25.76;71.31
70839;DHT22;58464;52.298;4.852;2022-08-24T18:48:35;25.63;71.74
70839;DHT22;58464;52.298;4.852;2022-08-24T18:51:00;25.49;72.61
70839;DHT22;58464;52.298;4.852;2022-08-24T18:53:26;25.39;72.93
70839;DHT22;58464;52.298;4.852;2022-08-24T18:55:52;25.25;73.26
70839;DHT22;58464;52.298;4.852;2022-08-24T18:58:18;25.16;74.19
70839;DHT22;58464;52.298;4.852;2022-08-24T19:00:45;25.14;74.13
70839;DHT22;58464;52.298;4.852;2022-08-24T19:03:14;25.01;74.41
70839;DHT22;58464;52.298;4.852;2022-08-24T19:05:40;24.85;74.39
70839;DHT22;58464;52.298;4.852;2022-08-24T19:08:05;24.84;74.46
70839;DHT22;58464;52.298;4.852;2022-08-24T19:10:34;24.71;74.55
70839;DHT22;58464;52.298;4.852;2022-08-24T19:13:07;24.65;74.77
70839;DHT22;58464;52.298;4.852;2022-08-24T19:15:33;24.60;74.54